Radium Springs, New Mexico
Current Conditions -  °F | °C
As of 3:55 PM on Tuesday 21 Oct 2014 (Local Time) from KLRU Reporting Station
Scattered Clouds Scattered Clouds  
Wind Chill: 70°   Ceiling: Unl
Heat Index: 70°   Visibility: 10mi
Dew Point: 52°   Wind: 0mph
Humidity: 52%   Direction: NA
Pressure: 30.04"   Gusts: NA
Location:  32.5°N, 106.93°W
Report Text: KLRU 212155Z AUTO 00000KT 10SM SCT040 21/11 A3004 RMK AO2 T02100109
Loading
Personal Weather Stations






























Interactive Weather Map
Tropical Storm Tracking
New forecast layout! Learn more

10-Day Weather Forecast

Advertisements
Track Severe Weather on mobile